createdAt,value
2019-05-07T05:23:13.171Z,9.70
2019-05-07T05:25:43.274Z,10.10
2019-05-07T05:28:15.488Z,10.90
2019-05-07T05:30:50.229Z,10.70
2019-05-07T05:33:19.874Z,11.40
2019-05-07T05:35:49.520Z,11.40
2019-05-07T05:38:19.147Z,11.70
2019-05-07T05:46:06.760Z,12.80
2019-05-07T05:48:36.905Z,13.00
2019-05-07T05:51:24.427Z,12.60
2019-05-07T05:54:08.875Z,13.10
2019-05-07T05:56:52.250Z,14.00
2019-05-07T05:59:49.051Z,13.30
2019-05-07T06:02:53.277Z,13.30
2019-05-07T06:05:48.023Z,13.70
2019-05-07T06:08:36.586Z,15.90
2019-05-07T06:11:18.058Z,16.00
2019-05-07T06:14:12.971Z,15.50
2019-05-07T06:16:48.475Z,17.30
2019-05-07T06:19:39.815Z,19.60
2019-05-07T06:22:37.488Z,19.10
2019-05-07T06:55:57.006Z,20.90
2019-05-07T06:58:32.559Z,20.70
2019-05-07T07:01:12.100Z,20.90
2019-05-07T07:04:02.390Z,20.70
2019-05-07T07:06:37.121Z,21.60
2019-05-07T07:09:22.239Z,21.70
2019-05-07T07:11:56.224Z,22.30
2019-05-07T07:14:25.978Z,22.90
2019-05-07T07:16:55.593Z,22.10
2019-05-07T07:19:25.282Z,22.20
2019-05-07T07:21:54.975Z,24.50
2019-05-07T07:24:24.643Z,22.70
2019-05-07T07:26:54.275Z,21.20
2019-05-07T07:29:25.927Z,20.60
2019-05-07T07:31:58.482Z,20.60
2019-05-07T07:34:29.988Z,21.30
2019-05-07T07:37:15.515Z,21.00
2019-05-07T07:39:43.192Z,19.70
2019-05-07T07:42:12.827Z,19.30
2019-05-07T07:44:42.666Z,20.80
2019-05-07T07:47:12.951Z,21.60
2019-05-07T07:49:42.797Z,21.30
2019-05-07T07:52:12.434Z,20.80
2019-05-07T07:54:42.893Z,21.70
2019-05-07T07:57:34.760Z,21.10
2019-05-07T08:00:12.444Z,20.70
2019-05-07T08:02:56.469Z,19.90
2019-05-07T08:05:26.131Z,19.70
2019-05-07T08:07:55.759Z,20.10
2019-05-07T08:10:25.401Z,19.10
2019-05-07T08:12:55.098Z,18.90
2019-05-07T08:15:24.956Z,19.60
2019-05-07T08:17:55.168Z,20.20
2019-05-07T08:20:25.145Z,19.90
2019-05-07T08:22:54.735Z,20.30
2019-05-07T08:25:43.325Z,20.00
2019-05-07T08:28:13.001Z,20.80
2019-05-07T08:30:44.376Z,20.70
2019-05-07T08:33:27.164Z,20.20
2019-05-07T08:36:12.083Z,21.30
2019-05-07T08:38:52.728Z,20.40
2019-05-07T08:41:24.132Z,20.70
2019-05-07T08:44:10.637Z,19.60
2019-05-07T08:46:44.206Z,20.30
2019-05-07T08:49:14.134Z,20.00
2019-05-07T08:51:43.775Z,19.60
2019-05-07T08:54:13.399Z,19.90
2019-05-07T08:56:43.075Z,20.80
2019-05-07T08:59:12.688Z,20.60
2019-05-07T09:01:43.406Z,18.80
2019-05-07T09:04:13.619Z,18.60
2019-05-07T09:06:43.382Z,20.30
2019-05-07T09:09:13.908Z,18.20
2019-05-07T09:11:43.591Z,18.00
2019-05-07T09:14:13.195Z,16.80
2019-05-07T09:16:43.027Z,17.80
2019-05-07T09:19:13.066Z,18.30
2019-05-07T09:21:43.664Z,18.30
2019-05-07T09:24:13.487Z,17.90
2019-05-07T09:26:48.942Z,16.60
2019-05-07T09:29:36.105Z,17.90
2019-05-07T09:32:16.708Z,16.90
2019-05-07T09:34:47.467Z,16.30
2019-05-07T09:37:22.622Z,16.00
2019-05-07T09:39:52.362Z,17.50
2019-05-07T09:42:22.564Z,18.30
2019-05-07T09:44:52.916Z,18.00
2019-05-07T09:47:22.748Z,18.30
2019-05-07T09:50:03.893Z,18.20
2019-05-07T09:52:23.670Z,17.50
2019-05-07T09:54:53.268Z,17.40
2019-05-07T09:57:30.875Z,17.50
2019-05-07T09:59:54.344Z,17.30
2019-05-07T10:02:24.011Z,16.80
2019-05-07T10:04:53.667Z,14.70
2019-05-07T10:07:23.315Z,15.10
2019-05-07T10:50:47.911Z,14.20
2019-05-07T10:53:17.643Z,14.50
2019-05-07T10:55:47.224Z,15.60
2019-05-07T10:58:16.960Z,15.00
2019-05-07T11:00:46.595Z,13.90
2019-05-07T11:03:16.200Z,13.90
2019-05-07T11:10:43.887Z,13.70
2019-05-07T11:25:52.791Z,14.20
2019-05-07T11:28:22.780Z,14.10
2019-05-07T11:30:52.644Z,14.30
2019-05-07T11:33:22.237Z,15.10
2019-05-07T11:35:52.840Z,14.40
2019-05-07T11:38:24.934Z,14.00
2019-05-07T11:40:54.432Z,14.10
2019-05-07T11:43:48.871Z,14.40
2019-05-07T11:46:22.975Z,13.80
2019-05-07T11:48:57.950Z,13.80
2019-05-07T11:51:33.940Z,13.90
2019-05-07T11:54:14.039Z,14.20
2019-05-07T11:56:43.637Z,13.40
2019-05-07T11:59:13.645Z,12.60
2019-05-07T12:01:47.828Z,12.60
2019-05-07T12:04:18.007Z,13.10
2019-05-07T12:06:47.650Z,13.60
2019-05-07T12:09:17.243Z,14.30
2019-05-07T12:11:46.882Z,13.60
2019-05-07T12:14:27.992Z,13.50
2019-05-07T12:16:47.780Z,13.70
2019-05-07T12:19:17.410Z,13.80
2019-05-07T12:21:47.309Z,13.90
2019-05-07T12:24:16.944Z,14.30
2019-05-07T12:26:46.703Z,15.40
2019-05-07T12:29:16.354Z,16.20
2019-05-07T12:32:21.967Z,15.50
2019-05-07T12:34:57.820Z,16.40
2019-05-07T12:37:27.451Z,16.30
2019-05-07T12:39:57.052Z,15.80
2019-05-07T12:42:26.729Z,15.50
2019-05-07T12:44:56.366Z,15.20
2019-05-07T12:47:26.037Z,14.90
2019-05-07T12:49:55.774Z,15.30
2019-05-07T12:52:47.391Z,15.20
2019-05-07T12:55:25.468Z,15.30
2019-05-07T12:57:55.054Z,15.20
2019-05-07T13:00:42.903Z,14.80
2019-05-07T13:03:21.839Z,14.90
2019-05-07T13:05:52.097Z,15.00
2019-05-07T13:08:23.024Z,14.80
2019-05-07T13:10:52.846Z,14.20
2019-05-07T13:13:22.528Z,14.50
2019-05-07T13:15:52.200Z,14.40
2019-05-07T13:18:22.664Z,14.30
2019-05-07T13:25:52.372Z,13.50
2019-05-07T13:28:22.240Z,13.00
2019-05-07T13:30:52.594Z,13.40
2019-05-07T13:33:23.231Z,13.70
2019-05-07T13:35:53.044Z,13.80
2019-05-07T13:38:42.652Z,13.90
2019-05-07T13:41:28.131Z,13.90
2019-05-07T13:44:18.282Z,14.70
2019-05-07T13:46:49.843Z,15.00
2019-05-07T13:49:21.828Z,14.90
2019-05-07T13:52:02.861Z,14.90
2019-05-07T13:54:23.125Z,15.30
2019-05-07T13:56:52.723Z,15.30
2019-05-07T13:59:22.719Z,15.00
2019-05-07T14:02:04.525Z,14.90
2019-05-07T14:04:36.743Z,15.00
2019-05-07T14:07:06.385Z,15.30
2019-05-07T14:09:37.344Z,15.40
2019-05-07T14:12:06.968Z,15.10
2019-05-07T14:14:36.855Z,15.20
2019-05-07T14:17:06.480Z,15.40
2019-05-07T14:19:36.114Z,15.20
2019-05-07T14:22:15.175Z,15.30
2019-05-07T14:24:37.095Z,15.40
2019-05-07T14:27:06.749Z,15.70
2019-05-07T14:29:36.459Z,15.70
2019-05-07T14:32:41.921Z,15.20
2019-05-07T14:35:49.187Z,15.20
2019-05-07T14:38:32.111Z,15.40
2019-05-07T14:41:02.665Z,15.40
2019-05-07T14:43:47.050Z,14.90
2019-05-07T14:46:16.715Z,14.60
2019-05-07T14:48:46.476Z,14.20
2019-05-07T14:51:16.196Z,13.90
2019-05-07T14:53:45.801Z,13.60
2019-05-07T14:56:16.845Z,13.10
2019-05-07T14:58:46.618Z,13.00
2019-05-07T15:01:16.284Z,13.10
2019-05-07T15:03:46.040Z,13.20
2019-05-07T15:06:15.761Z,12.90
2019-05-07T15:08:45.355Z,13.00
2019-05-07T15:11:15.094Z,12.80
2019-05-07T15:13:44.696Z,12.70
2019-05-07T15:16:14.661Z,12.70
2019-05-07T15:19:01.298Z,12.40
2019-05-07T15:21:32.287Z,12.30
2019-05-07T15:24:03.252Z,12.70
2019-05-07T15:26:33.092Z,12.90
2019-05-07T15:29:14.350Z,13.10
2019-05-07T15:32:03.483Z,13.30
2019-05-07T15:34:33.251Z,13.40
2019-05-07T15:37:02.854Z,13.40
2019-05-07T15:39:32.881Z,13.50
2019-05-07T15:42:02.727Z,13.80
2019-05-07T15:44:32.383Z,13.40
2019-05-07T15:47:04.671Z,13.60
2019-05-07T15:49:34.350Z,13.60
2019-05-07T15:52:06.860Z,13.40
2019-05-07T15:54:36.522Z,13.70
2019-05-07T15:57:08.405Z,13.50
2019-05-07T15:59:38.108Z,13.50
2019-05-07T16:02:19.911Z,13.00
2019-05-07T16:04:49.596Z,13.10
2019-05-07T16:07:19.263Z,13.30
2019-05-07T16:09:48.900Z,12.90
2019-05-07T16:12:22.617Z,12.90
2019-05-07T16:14:52.467Z,12.50
2019-05-07T16:17:28.752Z,12.60
2019-05-07T16:19:58.502Z,13.00
2019-05-07T16:22:33.142Z,12.70
2019-05-07T16:25:06.890Z,12.30
2019-05-07T16:27:37.249Z,12.50
2019-05-07T16:30:07.027Z,12.30
2019-05-07T16:32:36.615Z,12.40
2019-05-07T16:35:06.459Z,12.50
2019-05-07T16:37:36.160Z,12.50
2019-05-07T16:40:06.655Z,12.70
2019-05-07T16:42:38.230Z,12.90
2019-05-07T16:45:08.244Z,13.10
2019-05-07T16:47:37.903Z,13.00
2019-05-07T16:50:09.650Z,12.90
2019-05-07T16:52:41.854Z,12.70
2019-05-07T16:55:12.242Z,12.20
2019-05-07T16:58:01.756Z,12.10
2019-05-07T17:00:36.594Z,12.20
2019-05-07T17:03:08.588Z,12.10
2019-05-07T17:05:38.286Z,12.10
2019-05-07T17:08:25.511Z,12.20
2019-05-07T17:10:55.213Z,12.30
2019-05-07T17:13:25.024Z,12.20
2019-05-07T17:15:55.915Z,12.40
2019-05-07T17:18:26.615Z,12.20
2019-05-07T17:20:57.420Z,12.40
2019-05-07T17:23:34.426Z,12.40
2019-05-07T17:25:58.752Z,12.30
2019-05-07T17:28:28.964Z,12.40
2019-05-07T17:30:58.788Z,12.40
2019-05-07T17:33:28.452Z,12.30
2019-05-07T17:35:58.089Z,12.10
2019-05-07T17:38:27.784Z,11.80
2019-05-07T17:41:09.962Z,11.80
2019-05-07T17:43:28.806Z,11.70
2019-05-07T17:45:58.403Z,11.70
2019-05-07T17:48:28.062Z,11.60
2019-05-07T17:51:28.821Z,11.70
2019-05-07T17:54:03.500Z,11.60
2019-05-07T17:56:33.236Z,11.60
2019-05-07T17:59:03.003Z,11.60
2019-05-07T18:01:50.256Z,11.70
2019-05-07T18:04:21.124Z,11.80
2019-05-07T18:06:52.210Z,11.60
2019-05-07T18:09:22.584Z,11.50
2019-05-07T18:11:52.448Z,11.50
2019-05-07T18:14:22.878Z,11.60
2019-05-07T18:17:14.291Z,11.40
2019-05-07T18:19:44.954Z,11.50
2019-05-07T18:22:14.697Z,11.50
2019-05-07T18:24:44.443Z,11.40
2019-05-07T18:27:23.663Z,11.40
2019-05-07T18:29:55.932Z,11.20
2019-05-07T18:32:37.076Z,11.20
2019-05-07T18:35:07.321Z,11.30
2019-05-07T18:37:38.640Z,11.40
2019-05-07T18:40:08.479Z,11.40
2019-05-07T18:42:38.107Z,11.30
2019-05-07T18:45:08.028Z,11.20
2019-05-07T18:47:37.649Z,11.20
2019-05-07T18:50:09.559Z,11.30
2019-05-07T18:52:42.426Z,11.30
2019-05-07T18:55:12.227Z,11.30
2019-05-07T18:57:42.247Z,11.20
2019-05-07T19:00:17.155Z,11.40
2019-05-07T19:02:46.820Z,11.60
2019-05-07T19:05:19.288Z,11.60
2019-05-07T19:07:47.842Z,11.40
2019-05-07T19:10:17.800Z,11.50
2019-05-07T19:12:47.929Z,11.30
2019-05-07T19:15:17.674Z,11.30
2019-05-07T19:17:47.285Z,11.30
2019-05-07T19:20:17.052Z,11.30
2019-05-07T19:22:46.684Z,11.30
2019-05-07T19:25:16.663Z,11.30
2019-05-07T19:27:46.328Z,11.10
2019-05-07T19:30:16.296Z,10.90
2019-05-07T19:32:45.932Z,10.90
2019-05-07T19:35:15.911Z,10.90
2019-05-07T19:37:45.569Z,10.80
2019-05-07T19:40:15.357Z,10.70
2019-05-07T19:42:45.000Z,10.60
2019-05-07T19:45:17.973Z,10.70
2019-05-07T19:47:46.422Z,10.90
2019-05-07T19:50:16.296Z,10.80
2019-05-07T19:52:45.924Z,11.10
2019-05-07T19:55:15.609Z,11.20
2019-05-07T19:57:52.068Z,11.30
2019-05-07T20:00:23.090Z,11.40
2019-05-07T20:02:54.373Z,11.40
2019-05-07T20:05:24.102Z,11.30
2019-05-07T20:07:58.680Z,11.10
2019-05-07T20:10:42.099Z,11.00
2019-05-07T20:13:12.514Z,11.10
2019-05-07T20:15:48.466Z,11.20
2019-05-07T20:18:18.067Z,11.10
2019-05-07T20:20:47.715Z,11.20
2019-05-07T20:23:17.306Z,11.10
2019-05-07T20:25:47.046Z,11.20
2019-05-07T20:28:16.687Z,11.20
2019-05-07T20:30:46.356Z,11.10
2019-05-07T20:33:15.987Z,11.00
2019-05-07T20:35:45.640Z,10.80
2019-05-07T20:38:15.256Z,10.90
2019-05-07T20:40:44.927Z,11.10
2019-05-07T20:43:14.546Z,11.10
2019-05-07T20:45:44.198Z,11.10
2019-05-07T20:48:13.784Z,11.20
2019-05-07T20:50:43.427Z,11.10
2019-05-07T20:53:13.063Z,10.90
2019-05-07T20:56:02.228Z,10.80
2019-05-07T20:58:32.825Z,10.50
2019-05-07T21:01:02.954Z,10.20
2019-05-07T21:03:32.699Z,10.10
2019-05-07T21:06:02.439Z,10.20
2019-05-07T21:08:32.609Z,10.30
2019-05-07T21:11:02.654Z,10.40
2019-05-07T21:13:34.991Z,10.00
2019-05-07T21:16:03.749Z,9.60
2019-05-07T21:18:33.420Z,9.40
2019-05-07T21:21:03.087Z,9.50
2019-05-07T21:23:32.822Z,9.50
2019-05-07T21:26:04.024Z,9.10
2019-05-07T21:28:33.739Z,9.10
2019-05-07T21:31:03.460Z,9.10
2019-05-07T21:33:33.053Z,9.10
2019-05-07T21:36:02.982Z,9.10
2019-05-07T21:38:33.054Z,9.10
2019-05-07T21:41:02.870Z,8.90
2019-05-07T21:43:32.787Z,8.90
2019-05-07T21:46:02.527Z,8.60
2019-05-07T21:48:32.918Z,8.60
2019-05-07T21:51:02.658Z,8.70
2019-05-07T21:53:47.215Z,8.60
2019-05-07T21:56:34.549Z,8.60
2019-05-07T21:59:08.892Z,8.50
2019-05-07T22:01:43.693Z,8.50
2019-05-07T22:04:13.468Z,8.50
2019-05-07T22:06:45.570Z,8.50
2019-05-07T22:09:14.519Z,8.50
2019-05-07T22:11:47.307Z,8.40
2019-05-07T22:14:16.935Z,8.40
2019-05-07T22:16:46.675Z,8.40
2019-05-07T22:19:16.287Z,8.30
2019-05-07T22:21:45.962Z,8.20
2019-05-07T22:24:15.546Z,8.20
2019-05-07T22:26:45.301Z,8.10
2019-05-07T22:29:14.972Z,8.10
2019-05-07T22:32:02.594Z,8.10
2019-05-07T22:34:51.887Z,8.10
2019-05-07T22:37:21.989Z,8.10
2019-05-07T22:39:51.832Z,8.00
2019-05-07T22:42:22.390Z,7.90
2019-05-07T22:44:52.355Z,7.90
2019-05-07T22:47:22.832Z,7.90
2019-05-07T22:49:53.634Z,7.80
2019-05-07T22:52:23.752Z,7.70
2019-05-07T22:54:53.436Z,7.70
2019-05-07T22:57:47.012Z,7.60
2019-05-07T23:00:23.898Z,7.70
2019-05-07T23:02:53.933Z,7.50
2019-05-07T23:05:23.724Z,7.60
2019-05-07T23:07:53.372Z,7.60
2019-05-07T23:10:23.014Z,7.60
2019-05-07T23:12:52.710Z,7.50
2019-05-07T23:15:22.669Z,7.50
2019-05-07T23:17:52.415Z,7.50
2019-05-07T23:20:24.174Z,7.40
2019-05-07T23:22:53.478Z,7.50
2019-05-07T23:25:24.602Z,7.40
2019-05-07T23:27:54.472Z,7.40
2019-05-07T23:30:24.129Z,7.40
2019-05-07T23:32:53.775Z,7.40
2019-05-07T23:35:23.375Z,7.50
2019-05-07T23:37:53.097Z,7.30
2019-05-07T23:40:44.413Z,7.30
2019-05-07T23:43:14.643Z,7.20
2019-05-07T23:45:44.299Z,7.10
2019-05-07T23:48:13.946Z,7.10
2019-05-07T23:50:43.565Z,7.10
2019-05-07T23:53:13.251Z,7.10
2019-05-07T23:55:42.875Z,7.10
2019-05-07T23:58:14.184Z,7.10
